sensor_id;sensor_type;location;lat;lon;timestamp;temperature;humidity
5806;DHT22;2929;50.810;8.342;2022-11-20T00:01:30;-1.30;99.90
5806;DHT22;2929;50.810;8.342;2022-11-20T00:03:58;-1.30;99.90
5806;DHT22;2929;50.810;8.342;2022-11-20T00:06:26;-1.20;99.90
5806;DHT22;2929;50.810;8.342;2022-11-20T00:08:55;-1.20;99.90
5806;DHT22;2929;50.810;8.342;2022-11-20T00:11:24;-1.20;99.90
5806;DHT22;2929;50.810;8.342;2022-11-20T00:13:54;-1.20;99.90
5806;DHT22;2929;50.810;8.342;2022-11-20T00:16:24;-1.20;99.90
5806;DHT22;2929;50.810;8.342;2022-11-20T00:18:53;-1.20;99.90
5806;DHT22;2929;50.810;8.342;2022-11-20T00:21:22;-1.20;99.90
5806;DHT22;2929;50.810;8.342;2022-11-20T00:23:50;-1.10;99.90
5806;DHT22;2929;50.810;8.342;2022-11-20T00:26:19;-1.20;99.90
5806;DHT22;2929;50.810;8.342;2022-11-20T00:28:50;-1.20;99.90
5806;DHT22;2929;50.810;8.342;2022-11-20T00:31:18;-1.20;99.90
5806;DHT22;2929;50.810;8.342;2022-11-20T00:33:45;-1.20;99.90
5806;DHT22;2929;50.810;8.342;2022-11-20T00:36:15;-1.30;99.90
5806;DHT22;2929;50.810;8.342;2022-11-20T00:38:43;-1.30;99.90
5806;DHT22;2929;50.810;8.342;2022-11-20T00:41:12;-1.20;99.90
5806;DHT22;2929;50.810;8.342;2022-11-20T00:43:40;-1.20;99.90
5806;DHT22;2929;50.810;8.342;2022-11-20T00:46:08;-1.20;99.90
5806;DHT22;2929;50.810;8.342;2022-11-20T00:48:35;-1.20;99.90
5806;DHT22;2929;50.810;8.342;2022-11-20T00:51:03;-1.10;99.90
5806;DHT22;2929;50.810;8.342;2022-11-20T00:53:32;-1.10;99.90
5806;DHT22;2929;50.810;8.342;2022-11-20T00:56:00;-1.10;99.90
5806;DHT22;2929;50.810;8.342;2022-11-20T00:58:30;-1.00;99.90
5806;DHT22;2929;50.810;8.342;2022-11-20T01:01:00;-1.00;99.90
5806;DHT22;2929;50.810;8.342;2022-11-20T01:03:30;-1.00;99.90
5806;DHT22;2929;50.810;8.342;2022-11-20T01:06:00;-1.00;99.90
5806;DHT22;2929;50.810;8.342;2022-11-20T01:08:29;-1.10;99.90
5806;DHT22;2929;50.810;8.342;2022-11-20T01:11:00;-1.10;99.90
5806;DHT22;2929;50.810;8.342;2022-11-20T01:13:29;-1.10;99.90
5806;DHT22;2929;50.810;8.342;2022-11-20T01:16:08;-1.00;99.90
5806;DHT22;2929;50.810;8.342;2022-11-20T01:18:36;-1.00;99.90
5806;DHT22;2929;50.810;8.342;2022-11-20T01:21:05;-1.00;99.90
5806;DHT22;2929;50.810;8.342;2022-11-20T01:23:33;-1.00;99.90
5806;DHT22;2929;50.810;8.342;2022-11-20T01:26:03;-1.00;99.90
5806;DHT22;2929;50.810;8.342;2022-11-20T01:28:31;-1.00;99.90
5806;DHT22;2929;50.810;8.342;2022-11-20T01:30:58;-1.00;99.90
5806;DHT22;2929;50.810;8.342;2022-11-20T01:33:25;-1.00;99.90
5806;DHT22;2929;50.810;8.342;2022-11-20T01:35:53;-0.90;99.90
5806;DHT22;2929;50.810;8.342;2022-11-20T01:38:20;-1.00;99.90
5806;DHT22;2929;50.810;8.342;2022-11-20T01:40:54;-1.00;99.90
5806;DHT22;2929;50.810;8.342;2022-11-20T01:43:24;-0.90;99.90
5806;DHT22;2929;50.810;8.342;2022-11-20T01:46:11;-1.00;99.90
5806;DHT22;2929;50.810;8.342;2022-11-20T01:48:43;-0.90;99.90
5806;DHT22;2929;50.810;8.342;2022-11-20T01:51:19;-0.90;99.90
5806;DHT22;2929;50.810;8.342;2022-11-20T01:53:48;-1.00;99.90
5806;DHT22;2929;50.810;8.342;2022-11-20T01:56:17;-1.00;99.90
5806;DHT22;2929;50.810;8.342;2022-11-20T01:58:48;-1.00;99.90
5806;DHT22;2929;50.810;8.342;2022-11-20T02:01:16;-1.00;99.90
5806;DHT22;2929;50.810;8.342;2022-11-20T02:03:44;-1.00;99.90
5806;DHT22;2929;50.810;8.342;2022-11-20T02:06:16;-0.90;99.90
5806;DHT22;2929;50.810;8.342;2022-11-20T02:08:46;-0.90;99.90
5806;DHT22;2929;50.810;8.342;2022-11-20T02:11:13;-0.90;99.90
5806;DHT22;2929;50.810;8.342;2022-11-20T02:13:40;-0.90;99.90
5806;DHT22;2929;50.810;8.342;2022-11-20T02:16:22;-0.90;99.90
5806;DHT22;2929;50.810;8.342;2022-11-20T02:18:50;-0.90;99.90
5806;DHT22;2929;50.810;8.342;2022-11-20T02:21:27;-0.90;99.90
5806;DHT22;2929;50.810;8.342;2022-11-20T02:24:10;-0.90;99.90
5806;DHT22;2929;50.810;8.342;2022-11-20T02:26:50;-0.90;99.90
5806;DHT22;2929;50.810;8.342;2022-11-20T02:29:23;-0.90;99.90
5806;DHT22;2929;50.810;8.342;2022-11-20T02:31:50;-0.90;99.90
5806;DHT22;2929;50.810;8.342;2022-11-20T02:34:18;-0.80;99.90
5806;DHT22;2929;50.810;8.342;2022-11-20T02:36:46;-0.80;99.90
5806;DHT22;2929;50.810;8.342;2022-11-20T02:39:15;-0.80;99.90
5806;DHT22;2929;50.810;8.342;2022-11-20T02:41:43;-0.80;99.90
5806;DHT22;2929;50.810;8.342;2022-11-20T02:44:10;-0.90;99.90
5806;DHT22;2929;50.810;8.342;2022-11-20T02:46:37;-0.90;99.90
5806;DHT22;2929;50.810;8.342;2022-11-20T02:49:05;-0.90;99.90
5806;DHT22;2929;50.810;8.342;2022-11-20T02:51:32;-0.90;99.90
5806;DHT22;2929;50.810;8.342;2022-11-20T02:53:59;-0.90;99.90
5806;DHT22;2929;50.810;8.342;2022-11-20T02:56:28;-0.90;99.90
5806;DHT22;2929;50.810;8.342;2022-11-20T02:58:55;-0.90;99.90
5806;DHT22;2929;50.810;8.342;2022-11-20T03:01:22;-0.90;99.90
5806;DHT22;2929;50.810;8.342;2022-11-20T03:03:49;-0.80;99.90
5806;DHT22;2929;50.810;8.342;2022-11-20T03:06:17;-0.80;99.90
5806;DHT22;2929;50.810;8.342;2022-11-20T03:08:44;-0.80;99.90
5806;DHT22;2929;50.810;8.342;2022-11-20T03:11:11;-0.80;99.90
5806;DHT22;2929;50.810;8.342;2022-11-20T03:13:40;-0.80;99.90
5806;DHT22;2929;50.810;8.342;2022-11-20T03:16:12;-0.70;99.90
5806;DHT22;2929;50.810;8.342;2022-11-20T03:18:40;-0.70;99.90
5806;DHT22;2929;50.810;8.342;2022-11-20T03:21:08;-0.70;99.90
5806;DHT22;2929;50.810;8.342;2022-11-20T03:23:37;-0.80;99.90
5806;DHT22;2929;50.810;8.342;2022-11-20T03:26:09;-0.80;99.90
5806;DHT22;2929;50.810;8.342;2022-11-20T03:28:36;-0.80;99.90
5806;DHT22;2929;50.810;8.342;2022-11-20T03:31:10;-0.80;99.90
5806;DHT22;2929;50.810;8.342;2022-11-20T03:33:38;-0.80;99.90
5806;DHT22;2929;50.810;8.342;2022-11-20T03:36:07;-0.70;99.90
5806;DHT22;2929;50.810;8.342;2022-11-20T03:38:34;-0.70;99.90
5806;DHT22;2929;50.810;8.342;2022-11-20T03:41:03;-0.70;99.90
5806;DHT22;2929;50.810;8.342;2022-11-20T03:43:31;-0.60;99.90
5806;DHT22;2929;50.810;8.342;2022-11-20T03:45:58;-0.60;99.90
5806;DHT22;2929;50.810;8.342;2022-11-20T03:48:27;-0.60;99.90
5806;DHT22;2929;50.810;8.342;2022-11-20T03:51:06;-0.60;99.90
5806;DHT22;2929;50.810;8.342;2022-11-20T03:53:34;-0.60;99.90
5806;DHT22;2929;50.810;8.342;2022-11-20T03:56:01;-0.60;99.90
5806;DHT22;2929;50.810;8.342;2022-11-20T03:58:28;-0.60;99.90
5806;DHT22;2929;50.810;8.342;2022-11-20T04:00:55;-0.60;99.90
5806;DHT22;2929;50.810;8.342;2022-11-20T04:03:22;-0.60;99.90
5806;DHT22;2929;50.810;8.342;2022-11-20T04:05:50;-0.70;99.90
5806;DHT22;2929;50.810;8.342;2022-11-20T04:08:17;-0.60;99.90
5806;DHT22;2929;50.810;8.342;2022-11-20T04:10:44;-0.60;99.90
5806;DHT22;2929;50.810;8.342;2022-11-20T04:13:11;-0.60;99.90
5806;DHT22;2929;50.810;8.342;2022-11-20T04:15:38;-0.70;99.90
5806;DHT22;2929;50.810;8.342;2022-11-20T04:18:05;-0.60;99.90
5806;DHT22;2929;50.810;8.342;2022-11-20T04:20:32;-0.60;99.90
5806;DHT22;2929;50.810;8.342;2022-11-20T04:23:00;-0.60;99.90
5806;DHT22;2929;50.810;8.342;2022-11-20T04:25:27;-0.50;99.90
5806;DHT22;2929;50.810;8.342;2022-11-20T04:27:55;-0.60;99.90
5806;DHT22;2929;50.810;8.342;2022-11-20T04:30:22;-0.60;99.90
5806;DHT22;2929;50.810;8.342;2022-11-20T04:32:49;-0.60;99.90
5806;DHT22;2929;50.810;8.342;2022-11-20T04:35:15;-0.60;99.90
5806;DHT22;2929;50.810;8.342;2022-11-20T04:37:42;-0.60;99.90
5806;DHT22;2929;50.810;8.342;2022-11-20T04:40:12;-0.50;99.90
5806;DHT22;2929;50.810;8.342;2022-11-20T04:42:39;-0.50;99.90
5806;DHT22;2929;50.810;8.342;2022-11-20T04:45:06;-0.60;99.90
5806;DHT22;2929;50.810;8.342;2022-11-20T04:47:33;-0.60;99.90
5806;DHT22;2929;50.810;8.342;2022-11-20T04:50:00;-0.70;99.90
5806;DHT22;2929;50.810;8.342;2022-11-20T04:52:27;-0.70;99.90
5806;DHT22;2929;50.810;8.342;2022-11-20T04:54:54;-0.70;99.90
5806;DHT22;2929;50.810;8.342;2022-11-20T04:57:23;-0.70;99.90
5806;DHT22;2929;50.810;8.342;2022-11-20T04:59:50;-0.70;99.90
5806;DHT22;2929;50.810;8.342;2022-11-20T05:02:17;-0.60;99.90
5806;DHT22;2929;50.810;8.342;2022-11-20T05:04:44;-0.70;99.90
5806;DHT22;2929;50.810;8.342;2022-11-20T05:07:11;-0.70;99.90
5806;DHT22;2929;50.810;8.342;2022-11-20T05:09:38;-0.80;99.90
5806;DHT22;2929;50.810;8.342;2022-11-20T05:12:07;-0.80;99.90
5806;DHT22;2929;50.810;8.342;2022-11-20T05:14:35;-0.80;99.90
5806;DHT22;2929;50.810;8.342;2022-11-20T05:17:02;-0.80;99.90
5806;DHT22;2929;50.810;8.342;2022-11-20T05:19:29;-0.80;99.90
5806;DHT22;2929;50.810;8.342;2022-11-20T05:21:56;-0.70;99.90
5806;DHT22;2929;50.810;8.342;2022-11-20T05:24:23;-0.70;99.90
5806;DHT22;2929;50.810;8.342;2022-11-20T05:26:50;-0.70;99.90
5806;DHT22;2929;50.810;8.342;2022-11-20T05:29:17;-0.70;99.90
5806;DHT22;2929;50.810;8.342;2022-11-20T05:31:46;-0.60;99.90
5806;DHT22;2929;50.810;8.342;2022-11-20T05:34:13;-0.70;99.90
5806;DHT22;2929;50.810;8.342;2022-11-20T05:36:40;-0.70;99.90
5806;DHT22;2929;50.810;8.342;2022-11-20T05:39:07;-0.70;99.90
5806;DHT22;2929;50.810;8.342;2022-11-20T05:41:34;-0.70;99.90
5806;DHT22;2929;50.810;8.342;2022-11-20T05:44:01;-0.70;99.90
5806;DHT22;2929;50.810;8.342;2022-11-20T05:46:28;-0.60;99.90
5806;DHT22;2929;50.810;8.342;2022-11-20T05:48:57;-0.70;99.90
5806;DHT22;2929;50.810;8.342;2022-11-20T05:51:25;-0.60;99.90
5806;DHT22;2929;50.810;8.342;2022-11-20T05:53:52;-0.60;99.90
5806;DHT22;2929;50.810;8.342;2022-11-20T05:56:20;-0.60;99.90
5806;DHT22;2929;50.810;8.342;2022-11-20T05:58:48;-0.60;99.90
5806;DHT22;2929;50.810;8.342;2022-11-20T06:01:17;-0.60;99.90
5806;DHT22;2929;50.810;8.342;2022-11-20T06:03:45;-0.50;99.90
5806;DHT22;2929;50.810;8.342;2022-11-20T06:06:15;-0.60;99.90
5806;DHT22;2929;50.810;8.342;2022-11-20T06:08:42;-0.50;99.90
5806;DHT22;2929;50.810;8.342;2022-11-20T06:11:11;-0.50;99.90
5806;DHT22;2929;50.810;8.342;2022-11-20T06:13:39;-0.60;99.90
5806;DHT22;2929;50.810;8.342;2022-11-20T06:16:06;-0.50;99.90
5806;DHT22;2929;50.810;8.342;2022-11-20T06:18:33;-0.60;99.90
5806;DHT22;2929;50.810;8.342;2022-11-20T06:21:02;-0.50;99.90
5806;DHT22;2929;50.810;8.342;2022-11-20T06:23:32;-0.60;99.90
5806;DHT22;2929;50.810;8.342;2022-11-20T06:26:01;-0.60;99.90
5806;DHT22;2929;50.810;8.342;2022-11-20T06:28:28;-0.60;99.90
5806;DHT22;2929;50.810;8.342;2022-11-20T06:30:55;-0.60;99.90
5806;DHT22;2929;50.810;8.342;2022-11-20T06:33:22;-0.70;99.90
5806;DHT22;2929;50.810;8.342;2022-11-20T06:35:49;-0.60;99.90
5806;DHT22;2929;50.810;8.342;2022-11-20T06:38:16;-0.60;99.90
5806;DHT22;2929;50.810;8.342;2022-11-20T06:40:45;-0.70;99.90
5806;DHT22;2929;50.810;8.342;2022-11-20T06:43:12;-0.70;99.90
5806;DHT22;2929;50.810;8.342;2022-11-20T06:45:39;-0.60;99.90
5806;DHT22;2929;50.810;8.342;2022-11-20T06:48:06;-0.60;99.90
5806;DHT22;2929;50.810;8.342;2022-11-20T06:50:33;-0.50;99.90
5806;DHT22;2929;50.810;8.342;2022-11-20T06:53:01;-0.50;99.90
5806;DHT22;2929;50.810;8.342;2022-11-20T06:55:29;-0.50;99.90
5806;DHT22;2929;50.810;8.342;2022-11-20T06:57:58;-0.50;99.90
5806;DHT22;2929;50.810;8.342;2022-11-20T07:00:25;-0.50;99.90
5806;DHT22;2929;50.810;8.342;2022-11-20T07:02:52;-0.50;99.90
5806;DHT22;2929;50.810;8.342;2022-11-20T07:05:19;-0.50;99.90
5806;DHT22;2929;50.810;8.342;2022-11-20T07:07:46;-0.50;99.90
5806;DHT22;2929;50.810;8.342;2022-11-20T07:10:13;-0.50;99.90
5806;DHT22;2929;50.810;8.342;2022-11-20T07:12:40;-0.50;99.90
5806;DHT22;2929;50.810;8.342;2022-11-20T07:15:08;-0.40;99.90
5806;DHT22;2929;50.810;8.342;2022-11-20T07:17:35;-0.40;99.90
5806;DHT22;2929;50.810;8.342;2022-11-20T07:20:03;-0.40;99.90
5806;DHT22;2929;50.810;8.342;2022-11-20T07:22:30;-0.40;99.90
5806;DHT22;2929;50.810;8.342;2022-11-20T07:24:57;-0.40;99.90
5806;DHT22;2929;50.810;8.342;2022-11-20T07:27:24;-0.30;99.90
5806;DHT22;2929;50.810;8.342;2022-11-20T07:29:51;-0.30;99.90
5806;DHT22;2929;50.810;8.342;2022-11-20T07:32:19;-0.40;99.90
5806;DHT22;2929;50.810;8.342;2022-11-20T07:34:46;-0.30;99.90
5806;DHT22;2929;50.810;8.342;2022-11-20T07:37:13;-0.30;99.90
5806;DHT22;2929;50.810;8.342;2022-11-20T07:39:40;-0.20;99.90
5806;DHT22;2929;50.810;8.342;2022-11-20T07:42:08;-0.30;99.90
5806;DHT22;2929;50.810;8.342;2022-11-20T07:44:36;-0.20;99.90
5806;DHT22;2929;50.810;8.342;2022-11-20T07:47:04;-0.20;99.90
5806;DHT22;2929;50.810;8.342;2022-11-20T07:49:32;-0.20;99.90
5806;DHT22;2929;50.810;8.342;2022-11-20T07:51:59;-0.20;99.90
5806;DHT22;2929;50.810;8.342;2022-11-20T07:54:26;-0.30;99.90
5806;DHT22;2929;50.810;8.342;2022-11-20T07:56:54;-0.20;99.90
5806;DHT22;2929;50.810;8.342;2022-11-20T07:59:21;-0.10;99.90
5806;DHT22;2929;50.810;8.342;2022-11-20T08:01:48;-0.10;99.90
5806;DHT22;2929;50.810;8.342;2022-11-20T08:04:15;-0.10;99.90
5806;DHT22;2929;50.810;8.342;2022-11-20T08:06:44;-0.10;99.90
5806;DHT22;2929;50.810;8.342;2022-11-20T08:09:11;0.00;99.90
5806;DHT22;2929;50.810;8.342;2022-11-20T08:11:38;-0.10;99.90
5806;DHT22;2929;50.810;8.342;2022-11-20T08:14:22;0.00;99.90
5806;DHT22;2929;50.810;8.342;2022-11-20T08:16:49;0.10;99.90
5806;DHT22;2929;50.810;8.342;2022-11-20T08:19:17;0.10;99.90
5806;DHT22;2929;50.810;8.342;2022-11-20T08:21:46;0.20;99.90
5806;DHT22;2929;50.810;8.342;2022-11-20T08:24:13;0.20;99.90
5806;DHT22;2929;50.810;8.342;2022-11-20T08:26:40;0.30;99.90
5806;DHT22;2929;50.810;8.342;2022-11-20T08:29:07;0.30;99.90
5806;DHT22;2929;50.810;8.342;2022-11-20T08:31:35;0.30;99.90
5806;DHT22;2929;50.810;8.342;2022-11-20T08:34:02;0.40;99.90
5806;DHT22;2929;50.810;8.342;2022-11-20T08:36:32;0.30;99.90
5806;DHT22;2929;50.810;8.342;2022-11-20T08:39:00;0.40;99.90
5806;DHT22;2929;50.810;8.342;2022-11-20T08:41:29;0.40;99.90
5806;DHT22;2929;50.810;8.342;2022-11-20T08:43:59;0.40;99.90
5806;DHT22;2929;50.810;8.342;2022-11-20T08:46:31;0.40;99.90
5806;DHT22;2929;50.810;8.342;2022-11-20T08:48:58;0.40;99.90
5806;DHT22;2929;50.810;8.342;2022-11-20T08:51:25;0.50;99.90
5806;DHT22;2929;50.810;8.342;2022-11-20T08:53:52;0.40;99.90
5806;DHT22;2929;50.810;8.342;2022-11-20T08:56:21;0.50;99.90
5806;DHT22;2929;50.810;8.342;2022-11-20T08:58:50;0.40;99.90
5806;DHT22;2929;50.810;8.342;2022-11-20T09:01:18;0.50;99.90
5806;DHT22;2929;50.810;8.342;2022-11-20T09:03:45;0.50;99.90
5806;DHT22;2929;50.810;8.342;2022-11-20T09:06:13;0.60;99.90
5806;DHT22;2929;50.810;8.342;2022-11-20T09:08:40;0.60;99.90
5806;DHT22;2929;50.810;8.342;2022-11-20T09:11:08;0.70;99.90
5806;DHT22;2929;50.810;8.342;2022-11-20T09:13:36;0.70;99.90
5806;DHT22;2929;50.810;8.342;2022-11-20T09:16:06;0.80;99.90
5806;DHT22;2929;50.810;8.342;2022-11-20T09:18:34;0.90;99.90
5806;DHT22;2929;50.810;8.342;2022-11-20T09:21:03;0.90;99.90
5806;DHT22;2929;50.810;8.342;2022-11-20T09:23:32;1.00;99.90
5806;DHT22;2929;50.810;8.342;2022-11-20T09:26:02;1.00;99.90
5806;DHT22;2929;50.810;8.342;2022-11-20T09:28:29;1.10;99.90
5806;DHT22;2929;50.810;8.342;2022-11-20T09:30:58;1.10;99.90
5806;DHT22;2929;50.810;8.342;2022-11-20T09:33:25;1.10;99.90
5806;DHT22;2929;50.810;8.342;2022-11-20T09:35:53;1.20;99.90
5806;DHT22;2929;50.810;8.342;2022-11-20T09:38:20;1.20;99.90
5806;DHT22;2929;50.810;8.342;2022-11-20T09:40:51;1.20;99.90
5806;DHT22;2929;50.810;8.342;2022-11-20T09:43:27;1.20;99.90
5806;DHT22;2929;50.810;8.342;2022-11-20T09:46:05;1.10;99.90
5806;DHT22;2929;50.810;8.342;2022-11-20T09:48:48;1.20;99.90
5806;DHT22;2929;50.810;8.342;2022-11-20T09:51:28;1.20;99.90
5806;DHT22;2929;50.810;8.342;2022-11-20T09:54:10;1.30;99.90
5806;DHT22;2929;50.810;8.342;2022-11-20T09:56:42;1.30;99.90
5806;DHT22;2929;50.810;8.342;2022-11-20T09:59:23;1.30;99.90
5806;DHT22;2929;50.810;8.342;2022-11-20T10:01:55;1.40;99.90
5806;DHT22;2929;50.810;8.342;2022-11-20T10:04:22;1.30;99.90
5806;DHT22;2929;50.810;8.342;2022-11-20T10:06:55;1.40;99.90
5806;DHT22;2929;50.810;8.342;2022-11-20T10:09:28;1.40;99.90
5806;DHT22;2929;50.810;8.342;2022-11-20T10:12:06;1.40;99.90
5806;DHT22;2929;50.810;8.342;2022-11-20T10:14:41;1.50;99.90
5806;DHT22;2929;50.810;8.342;2022-11-20T10:17:19;1.60;99.90
5806;DHT22;2929;50.810;8.342;2022-11-20T10:19:59;1.60;99.90
5806;DHT22;2929;50.810;8.342;2022-11-20T10:22:42;1.60;99.90
5806;DHT22;2929;50.810;8.342;2022-11-20T10:25:14;1.70;99.90
5806;DHT22;2929;50.810;8.342;2022-11-20T10:28:00;1.70;99.90
5806;DHT22;2929;50.810;8.342;2022-11-20T10:30:34;1.90;99.90
5806;DHT22;2929;50.810;8.342;2022-11-20T10:33:08;1.90;99.90
5806;DHT22;2929;50.810;8.342;2022-11-20T10:35:41;1.90;99.90
5806;DHT22;2929;50.810;8.342;2022-11-20T10:38:13;2.00;99.90
5806;DHT22;2929;50.810;8.342;2022-11-20T10:40:45;2.10;99.90
5806;DHT22;2929;50.810;8.342;2022-11-20T10:43:16;2.10;99.90
5806;DHT22;2929;50.810;8.342;2022-11-20T10:45:52;2.20;99.90
5806;DHT22;2929;50.810;8.342;2022-11-20T10:48:24;2.30;99.90
5806;DHT22;2929;50.810;8.342;2022-11-20T10:51:08;2.40;99.90
5806;DHT22;2929;50.810;8.342;2022-11-20T10:53:46;2.40;99.90
5806;DHT22;2929;50.810;8.342;2022-11-20T10:56:20;2.40;99.90
5806;DHT22;2929;50.810;8.342;2022-11-20T10:58:59;2.40;99.90
5806;DHT22;2929;50.810;8.342;2022-11-20T11:01:27;2.50;99.90
5806;DHT22;2929;50.810;8.342;2022-11-20T11:03:55;2.50;99.90
5806;DHT22;2929;50.810;8.342;2022-11-20T11:06:29;2.50;99.90
5806;DHT22;2929;50.810;8.342;2022-11-20T11:08:59;2.50;99.90
5806;DHT22;2929;50.810;8.342;2022-11-20T11:11:30;2.50;99.90
5806;DHT22;2929;50.810;8.342;2022-11-20T11:14:05;2.50;99.90
5806;DHT22;2929;50.810;8.342;2022-11-20T11:16:32;2.40;99.90
5806;DHT22;2929;50.810;8.342;2022-11-20T11:19:12;2.50;99.90
5806;DHT22;2929;50.810;8.342;2022-11-20T11:21:46;2.60;99.90
5806;DHT22;2929;50.810;8.342;2022-11-20T11:24:20;2.70;99.90
5806;DHT22;2929;50.810;8.342;2022-11-20T11:26:59;2.70;99.90
5806;DHT22;2929;50.810;8.342;2022-11-20T11:29:30;2.80;99.90
5806;DHT22;2929;50.810;8.342;2022-11-20T11:32:08;2.80;99.90
5806;DHT22;2929;50.810;8.342;2022-11-20T11:34:36;2.70;99.90
5806;DHT22;2929;50.810;8.342;2022-11-20T11:37:04;2.60;99.90
5806;DHT22;2929;50.810;8.342;2022-11-20T11:39:33;2.70;99.90
5806;DHT22;2929;50.810;8.342;2022-11-20T11:42:00;2.80;99.90
5806;DHT22;2929;50.810;8.342;2022-11-20T11:44:30;2.80;99.90
5806;DHT22;2929;50.810;8.342;2022-11-20T11:47:22;2.80;99.90
5806;DHT22;2929;50.810;8.342;2022-11-20T11:50:01;2.80;99.90
5806;DHT22;2929;50.810;8.342;2022-11-20T11:52:49;2.80;99.90
5806;DHT22;2929;50.810;8.342;2022-11-20T11:55:24;3.00;99.90
5806;DHT22;2929;50.810;8.342;2022-11-20T11:57:55;3.10;99.90
5806;DHT22;2929;50.810;8.342;2022-11-20T12:00:26;3.20;99.90
5806;DHT22;2929;50.810;8.342;2022-11-20T12:03:00;3.30;99.90
5806;DHT22;2929;50.810;8.342;2022-11-20T12:05:36;3.40;99.90
5806;DHT22;2929;50.810;8.342;2022-11-20T12:08:05;3.30;99.90
5806;DHT22;2929;50.810;8.342;2022-11-20T12:10:41;3.40;99.90
5806;DHT22;2929;50.810;8.342;2022-11-20T12:13:26;3.40;99.90
5806;DHT22;2929;50.810;8.342;2022-11-20T12:15:57;3.30;99.90
5806;DHT22;2929;50.810;8.342;2022-11-20T12:18:24;3.20;99.90
5806;DHT22;2929;50.810;8.342;2022-11-20T12:21:04;3.10;99.90
5806;DHT22;2929;50.810;8.342;2022-11-20T12:23:42;3.20;99.90
5806;DHT22;2929;50.810;8.342;2022-11-20T12:26:14;3.20;99.90
5806;DHT22;2929;50.810;8.342;2022-11-20T12:28:54;3.30;99.90
5806;DHT22;2929;50.810;8.342;2022-11-20T12:31:38;3.30;99.90
5806;DHT22;2929;50.810;8.342;2022-11-20T12:34:20;3.30;99.90
5806;DHT22;2929;50.810;8.342;2022-11-20T12:36:52;3.20;99.90
5806;DHT22;2929;50.810;8.342;2022-11-20T12:39:33;3.00;99.90
5806;DHT22;2929;50.810;8.342;2022-11-20T12:42:20;3.10;99.90
5806;DHT22;2929;50.810;8.342;2022-11-20T12:45:21;3.10;99.90
5806;DHT22;2929;50.810;8.342;2022-11-20T12:48:03;3.10;99.90
5806;DHT22;2929;50.810;8.342;2022-11-20T12:50:41;3.00;99.90
5806;DHT22;2929;50.810;8.342;2022-11-20T12:53:22;3.00;99.90
5806;DHT22;2929;50.810;8.342;2022-11-20T12:55:55;2.90;99.90
5806;DHT22;2929;50.810;8.342;2022-11-20T12:58:30;2.90;99.90
5806;DHT22;2929;50.810;8.342;2022-11-20T13:01:05;2.90;99.90
5806;DHT22;2929;50.810;8.342;2022-11-20T13:03:56;2.90;99.90
5806;DHT22;2929;50.810;8.342;2022-11-20T13:06:26;2.80;99.90
5806;DHT22;2929;50.810;8.342;2022-11-20T13:08:55;2.70;99.90
5806;DHT22;2929;50.810;8.342;2022-11-20T13:11:27;2.80;99.90
5806;DHT22;2929;50.810;8.342;2022-11-20T13:14:07;2.80;99.90
5806;DHT22;2929;50.810;8.342;2022-11-20T13:16:38;2.80;99.90
5806;DHT22;2929;50.810;8.342;2022-11-20T13:19:11;2.90;99.90
5806;DHT22;2929;50.810;8.342;2022-11-20T13:21:40;2.90;99.90
5806;DHT22;2929;50.810;8.342;2022-11-20T13:24:25;2.90;99.90
5806;DHT22;2929;50.810;8.342;2022-11-20T13:27:20;2.90;99.90
5806;DHT22;2929;50.810;8.342;2022-11-20T13:30:01;2.80;99.90
5806;DHT22;2929;50.810;8.342;2022-11-20T13:32:28;2.80;99.90
5806;DHT22;2929;50.810;8.342;2022-11-20T13:35:00;2.90;99.90
5806;DHT22;2929;50.810;8.342;2022-11-20T13:37:30;2.90;99.90
5806;DHT22;2929;50.810;8.342;2022-11-20T13:40:21;2.90;99.90
5806;DHT22;2929;50.810;8.342;2022-11-20T13:42:55;2.90;99.90
5806;DHT22;2929;50.810;8.342;2022-11-20T13:45:25;2.90;99.90
5806;DHT22;2929;50.810;8.342;2022-11-20T13:47:53;2.90;99.90
5806;DHT22;2929;50.810;8.342;2022-11-20T13:50:37;2.90;99.90
5806;DHT22;2929;50.810;8.342;2022-11-20T13:53:15;2.90;99.90
5806;DHT22;2929;50.810;8.342;2022-11-20T13:55:54;2.90;99.90
5806;DHT22;2929;50.810;8.342;2022-11-20T13:58:36;2.90;99.90
5806;DHT22;2929;50.810;8.342;2022-11-20T14:01:10;2.90;99.90
5806;DHT22;2929;50.810;8.342;2022-11-20T14:03:38;2.90;99.90
5806;DHT22;2929;50.810;8.342;2022-11-20T14:06:11;2.90;99.90
5806;DHT22;2929;50.810;8.342;2022-11-20T14:08:42;2.90;99.90
5806;DHT22;2929;50.810;8.342;2022-11-20T14:11:17;2.90;99.90
5806;DHT22;2929;50.810;8.342;2022-11-20T14:13:54;2.80;99.90
5806;DHT22;2929;50.810;8.342;2022-11-20T14:16:22;2.70;99.90
5806;DHT22;2929;50.810;8.342;2022-11-20T14:18:49;2.60;99.90
5806;DHT22;2929;50.810;8.342;2022-11-20T14:21:26;2.50;99.90
5806;DHT22;2929;50.810;8.342;2022-11-20T14:24:02;2.50;99.90
5806;DHT22;2929;50.810;8.342;2022-11-20T14:26:31;2.40;99.90
5806;DHT22;2929;50.810;8.342;2022-11-20T14:28:59;2.50;99.90
5806;DHT22;2929;50.810;8.342;2022-11-20T14:31:27;2.50;99.90
5806;DHT22;2929;50.810;8.342;2022-11-20T14:33:55;2.50;99.90
5806;DHT22;2929;50.810;8.342;2022-11-20T14:36:24;2.50;99.90
5806;DHT22;2929;50.810;8.342;2022-11-20T14:38:52;2.50;99.90
5806;DHT22;2929;50.810;8.342;2022-11-20T14:41:21;2.50;99.90
5806;DHT22;2929;50.810;8.342;2022-11-20T14:43:54;2.40;99.90
5806;DHT22;2929;50.810;8.342;2022-11-20T14:46:23;2.40;99.90
5806;DHT22;2929;50.810;8.342;2022-11-20T14:48:53;2.40;99.90
5806;DHT22;2929;50.810;8.342;2022-11-20T14:51:30;2.40;99.90
5806;DHT22;2929;50.810;8.342;2022-11-20T14:54:11;2.40;99.90
5806;DHT22;2929;50.810;8.342;2022-11-20T14:56:38;2.40;99.90
5806;DHT22;2929;50.810;8.342;2022-11-20T14:59:07;2.40;99.90
5806;DHT22;2929;50.810;8.342;2022-11-20T15:01:35;2.40;99.90
5806;DHT22;2929;50.810;8.342;2022-11-20T15:04:06;2.40;99.90
5806;DHT22;2929;50.810;8.342;2022-11-20T15:06:33;2.30;99.90
5806;DHT22;2929;50.810;8.342;2022-11-20T15:09:02;2.40;99.90
5806;DHT22;2929;50.810;8.342;2022-11-20T15:11:31;2.40;99.90
5806;DHT22;2929;50.810;8.342;2022-11-20T15:14:02;2.30;99.90
5806;DHT22;2929;50.810;8.342;2022-11-20T15:16:31;2.40;99.90
5806;DHT22;2929;50.810;8.342;2022-11-20T15:18:59;2.40;99.90
5806;DHT22;2929;50.810;8.342;2022-11-20T15:21:27;2.40;99.90
5806;DHT22;2929;50.810;8.342;2022-11-20T15:23:55;2.40;99.90
5806;DHT22;2929;50.810;8.342;2022-11-20T15:26:24;2.30;99.90
5806;DHT22;2929;50.810;8.342;2022-11-20T15:28:52;2.40;99.90
5806;DHT22;2929;50.810;8.342;2022-11-20T15:31:21;2.30;99.90
5806;DHT22;2929;50.810;8.342;2022-11-20T15:33:50;2.30;99.90
5806;DHT22;2929;50.810;8.342;2022-11-20T15:36:18;2.30;99.90
5806;DHT22;2929;50.810;8.342;2022-11-20T15:38:45;2.40;99.90
5806;DHT22;2929;50.810;8.342;2022-11-20T15:41:12;2.30;99.90
5806;DHT22;2929;50.810;8.342;2022-11-20T15:43:39;2.40;99.90
5806;DHT22;2929;50.810;8.342;2022-11-20T15:49:55;2.40;99.90
5806;DHT22;2929;50.810;8.342;2022-11-20T15:52:22;2.40;99.90
5806;DHT22;2929;50.810;8.342;2022-11-20T15:54:51;2.40;99.90
5806;DHT22;2929;50.810;8.342;2022-11-20T15:57:18;2.40;99.90
5806;DHT22;2929;50.810;8.342;2022-11-20T15:59:45;2.40;99.90
5806;DHT22;2929;50.810;8.342;2022-11-20T16:02:12;2.40;99.90
5806;DHT22;2929;50.810;8.342;2022-11-20T16:04:40;2.40;99.90
5806;DHT22;2929;50.810;8.342;2022-11-20T16:07:09;2.40;99.90
5806;DHT22;2929;50.810;8.342;2022-11-20T16:09:36;2.40;99.90
5806;DHT22;2929;50.810;8.342;2022-11-20T16:12:04;2.40;99.90
5806;DHT22;2929;50.810;8.342;2022-11-20T16:14:31;2.40;99.90
5806;DHT22;2929;50.810;8.342;2022-11-20T16:17:16;2.30;99.90
5806;DHT22;2929;50.810;8.342;2022-11-20T16:20:09;2.30;99.90
5806;DHT22;2929;50.810;8.342;2022-11-20T16:22:38;2.40;99.90
5806;DHT22;2929;50.810;8.342;2022-11-20T16:25:07;2.40;99.90
5806;DHT22;2929;50.810;8.342;2022-11-20T16:27:36;2.30;99.90
5806;DHT22;2929;50.810;8.342;2022-11-20T16:30:04;2.40;99.90
5806;DHT22;2929;50.810;8.342;2022-11-20T16:32:32;2.30;99.90
5806;DHT22;2929;50.810;8.342;2022-11-20T16:34:59;2.30;99.90